Inicio METAR Ruta Wind Satelite

Informe Meteorológico

Fecha: 2020/09/19 21:04:04 Local
2020.09.20 02:04 UTC


Estado: VENCIDO
Operación:VFR
Quibdo / El Carano, Colombia (SKUI) 05-43N 076-37W
2020.09.20 0000 UTC
Wind: from the SSW (200 degrees) at 7 MPH (6 KT):0
Visibility: greater than 7 mile(s):0
Sky conditions: partly cloudy
Weather: showers in the vicinity; Cumulonimbus clouds observed
Temperature: 78 F (26 C)
Dew Point: 75 F (24 C)
Relative Humidity: 88%
Pressure (altimeter): 29.79 in. Hg (1008 hPa)
ob: SKUI 200000Z 20006KT 9999 VCSH SCT017CB 26/24 A2979 RMK CB VCSH/SE/S
cycle: 0

SKUI 192300Z 29009KT 9999 VCSH SCT017CB SCT200 30/25 A2974 RMK CB VCSH/SE/S
SKUI 192200Z 24004KT 9999 SCT020CB SCT200 32/23 A2972 RMK CB/SE
SKUI 192100Z 27003KT 9999 FEW020CB 33/23 A2972 RMK CB/E
SKUI 192000Z VRB02KT 9999 SCT020 33/23 A2974
SKUI 191900Z 23003KT 9999 SCT020 32/24 A2977